Vg 117 Kungsvik — SBTH — position and weather

sailwx.info

Track history (hours):
 
Tides and Currents Weather Stations Pressure Air Temp Water Temp Dewpoint Dewpoint Depression Visibility Wind Speed Wind Dir Waves Ship Positions

Vg 117 Kungsvik

Last reported at 2014-Aug-18 19:30 UTC. Time now 2014-Aug-21 21:58 UTC.
Position N 57°04' E 012°16'.

Length 17 m.

Type: Fishing. MMSI: 266137000.

Date/timePositionNaut miles runAvg speedWind from/ knotsBaromVisibWave heightAir tempDewpointWater temp
2014-Aug-18 19:30N 57°04' E 012°16'0 0.0
2014-Aug-18 18:06N 57°04' E 012°16'0 0.0
2014-Aug-18 17:18N 57°04' E 012°16'0 0.0
2014-Aug-18 13:28N 57°04' E 012°16'0 0.0
2014-Aug-18 12:10N 57°04' E 012°16'0 0.0
2014-Aug-18 11:28N 57°04' E 012°16'0 0.0
2014-Aug-18 07:22N 57°04' E 012°16'0 0.0
2014-Aug-18 06:28N 57°04' E 012°16'0 0.0
2014-Aug-17 17:10N 57°04' E 012°16'0 0.0
2014-Aug-17 16:28N 57°04' E 012°16'0 0.0
2014-Aug-17 15:28N 57°04' E 012°16'0 0.0
2014-Aug-17 13:16N 57°04' E 012°16'0 0.0
2014-Aug-17 10:28N 57°04' E 012°16'0 0.0
2014-Aug-17 09:29N 57°04' E 012°16'0 0.0
2014-Aug-17 08:28N 57°04' E 012°16'0 0.0
2014-Aug-17 07:29N 57°04' E 012°16'0 0.0
2014-Aug-17 06:11N 57°04' E 012°16'0 0.0
2014-Aug-17 05:29N 57°04' E 012°16'0 0.0
2014-Aug-17 04:29N 57°04' E 012°16'0 0.0
2014-Aug-17 03:29N 57°04' E 012°16'0 0.0
2014-Aug-17 02:23N 57°04' E 012°16'0 0.0
2014-Aug-17 01:29N 57°04' E 012°16'0 0.0
2014-Aug-17 00:29N 57°04' E 012°16'0 0.0
2014-Aug-16 23:29N 57°04' E 012°16'0 0.0
2014-Aug-16 22:29N 57°04' E 012°16'0 0.0
2014-Aug-16 21:29N 57°04' E 012°16'0 0.0
2014-Aug-16 20:17N 57°04' E 012°16'0 0.0
2014-Aug-16 19:29N 57°04' E 012°16'0 0.0
2014-Aug-16 18:29N 57°04' E 012°16'0 0.0
2014-Aug-16 17:23N 57°04' E 012°16'0 0.0
2014-Aug-16 16:29N 57°04' E 012°16'0 0.0
2014-Aug-16 15:23N 57°04' E 012°16'0 0.0
2014-Aug-16 14:05N 57°04' E 012°16'0 0.0
2014-Aug-16 13:17N 57°04' E 012°16'0 0.0
2014-Aug-16 12:29N 57°04' E 012°16'0 0.0
2014-Aug-16 09:29N 57°04' E 012°16'0 0.0
2014-Aug-16 08:29N 57°04' E 012°16'0 0.0
2014-Aug-16 07:29N 57°04' E 012°16'0 0.0
2014-Aug-16 06:26N 57°04' E 012°16'12 1.3
2014-Aug-15 20:31N 57°02' E 011°54'2 2.0
2014-Aug-15 19:31N 57°02' E 011°57'2 2.5
2014-Aug-15 18:33N 57°02' E 012°01'4 4.4
2014-Aug-15 17:33N 57°03' E 012°09'4 3.6
2014-Aug-15 16:30N 57°04' E 012°16'0 0.0
2014-Aug-15 15:30N 57°04' E 012°16'0 0.0
2014-Aug-15 14:30N 57°04' E 012°16'0 0.0
2014-Aug-15 13:30N 57°04' E 012°16'0 0.0
2014-Aug-15 12:30N 57°04' E 012°16'0 0.0
2014-Aug-15 11:24N 57°04' E 012°16'0 0.0
2014-Aug-15 10:30N 57°04' E 012°16'0 0.0
2014-Aug-15 09:24N 57°04' E 012°16'0 0.0
2014-Aug-15 08:30N 57°04' E 012°16'0 0.0
2014-Aug-15 07:24N 57°04' E 012°16'0 0.0
2014-Aug-15 06:24N 57°04' E 012°16'3 3.8
2014-Aug-15 05:33N 57°03' E 012°11'5 3.9
2014-Aug-15 04:15N 57°02' E 012°01'2 2.5
2014-Aug-15 03:33N 57°02' E 011°58'2 1.9
2014-Aug-15 02:32N 57°04' E 011°57'1 1.4
2014-Aug-15 01:31N 57°04' E 011°59'2 2.3
2014-Aug-15 00:33N 57°03' E 012°02'2 2.3
2014-Aug-14 23:33N 57°02' E 012°06'2 2.0
2014-Aug-14 22:33N 57°03' E 012°03'3 1.5
2014-Aug-14 20:12N 57°02' E 011°57'1 2.3
2014-Aug-14 19:33N 57°02' E 011°59'2 2.3
2014-Aug-14 18:33N 57°02' E 012°04'4 3.9
2014-Aug-14 17:34N 57°02' E 012°11'3 2.9
2014-Aug-14 16:25N 57°04' E 012°16'0 0.0
2014-Aug-14 15:25N 57°04' E 012°16'0 0.0
2014-Aug-14 11:07N 57°04' E 012°16'1 0.2
2014-Aug-14 07:17N 57°03' E 012°15'4 5.8
2014-Aug-14 06:31N 57°02' E 012°07'3 2.6
2014-Aug-14 05:28N 57°02' E 012°02'2 2.0
2014-Aug-14 04:32N 57°03' E 011°59'2 2.5
2014-Aug-14 03:33N 57°06' E 011°60'2 2.3
2014-Aug-14 02:33N 57°06' E 012°04'2 2.4
2014-Aug-14 01:33N 57°05' E 012°08'2 2.3
2014-Aug-14 00:31N 57°03' E 012°11'3 2.6
2014-Aug-13 23:33N 57°01' E 012°09'2 1.9
2014-Aug-13 22:32N 56°60' E 012°06'2 2.1
2014-Aug-13 21:33N 56°59' E 012°02'0 0.1
2014-Aug-13 20:33N 56°59' E 012°02'3 2.5
2014-Aug-13 19:32N 56°60' E 012°07'2 2.4
2014-Aug-13 18:33N 57°01' E 012°10'4 4.2
2014-Aug-13 17:33N 57°04' E 012°16'0 0.0
2014-Aug-13 16:33N 57°04' E 012°16'0 0.0
2014-Aug-13 15:27N 57°04' E 012°16'0 0.0
2014-Aug-13 14:33N 57°04' E 012°16'0 0.0
2014-Aug-13 13:33N 57°04' E 012°16'0 0.0
2014-Aug-13 12:33N 57°04' E 012°16'0 0.0
2014-Aug-13 11:27N 57°04' E 012°16'0 0.0
2014-Aug-13 10:33N 57°04' E 012°16'0 0.0
2014-Aug-13 09:33N 57°04' E 012°16'0 0.0
2014-Aug-13 08:33N 57°04' E 012°16'0 0.0
2014-Aug-13 07:33N 57°04' E 012°16'0 0.0
2014-Aug-13 06:33N 57°04' E 012°16'0 0.0
2014-Aug-13 05:33N 57°04' E 012°16'0 0.0
2014-Aug-13 04:33N 57°04' E 012°16'0 0.0
2014-Aug-13 03:33N 57°04' E 012°16'0 0.0
2014-Aug-12 19:33N 57°04' E 012°16'0 0.0
2014-Aug-12 18:33N 57°04' E 012°16'0 0.0
2014-Aug-12 17:33N 57°04' E 012°16'0 0.0
2014-Aug-12 16:33N 57°04' E 012°16'0 0.0
2014-Aug-12 15:33N 57°04' E 012°16'0 0.0
2014-Aug-12 14:33N 57°04' E 012°16'0 0.0
2014-Aug-12 13:27N 57°04' E 012°16'0 0.0
2014-Aug-12 12:33N 57°04' E 012°16'0 0.0
2014-Aug-12 11:33N 57°04' E 012°16'0 0.0
2014-Aug-12 10:27N 57°04' E 012°16'0 0.0
2014-Aug-12 09:27N 57°04' E 012°16'0 0.0
2014-Aug-12 08:21N 57°04' E 012°16'0 0.0
2014-Aug-12 07:27N 57°04' E 012°16'0 0.0
2014-Aug-12 06:33N 57°04' E 012°16'0 0.0
2014-Aug-12 05:27N 57°04' E 012°16'0 0.0
2014-Aug-12 04:33N 57°04' E 012°16'0 0.0
2014-Aug-12 03:33N 57°04' E 012°16'0 0.0
2014-Aug-12 02:21N 57°04' E 012°16'0 0.0
2014-Aug-12 01:33N 57°04' E 012°16'0 0.0
2014-Aug-12 00:21N 57°04' E 012°16'0 0.0
2014-Aug-11 23:33N 57°04' E 012°16'0 0.0
2014-Aug-11 22:27N 57°04' E 012°16'0 0.0
2014-Aug-11 21:33N 57°04' E 012°16'0 0.0
2014-Aug-11 20:33N 57°04' E 012°16'0 0.0
2014-Aug-11 19:27N 57°04' E 012°16'0 0.0
2014-Aug-11 18:33N 57°04' E 012°16'0 0.0
2014-Aug-11 17:33N 57°04' E 012°16'0 0.0
2014-Aug-11 16:33N 57°04' E 012°16'0 0.0
2014-Aug-11 15:33N 57°04' E 012°16'0 0.0
2014-Aug-11 14:33N 57°04' E 012°16'0 0.0
2014-Aug-11 13:21N 57°04' E 012°16'0 0.0
2014-Aug-11 12:27N 57°04' E 012°16'0 0.0
2014-Aug-11 11:27N 57°04' E 012°16'0 0.0
2014-Aug-11 10:33N 57°04' E 012°16'0 0.0
2014-Aug-11 09:09N 57°04' E 012°16'0 0.0
2014-Aug-11 08:15N 57°04' E 012°16'0 0.0
2014-Aug-11 07:33N 57°04' E 012°16'0 0.0
2014-Aug-11 06:21N 57°04' E 012°16'0 0.0
2014-Aug-11 05:33N 57°04' E 012°16'0 0.0
2014-Aug-11 04:33N 57°04' E 012°16'0 0.0
2014-Aug-11 03:21N 57°04' E 012°16'0 0.0
2014-Aug-11 02:33N 57°04' E 012°16'1 0.7
2014-Aug-11 01:32N 57°03' E 012°15'3 3.2
2014-Aug-11 00:33N 57°00' E 012°14'1 1.0
2014-Aug-10 23:33N 56°59' E 012°13'2 2.2
2014-Aug-10 22:31N 57°02' E 012°12'2 2.4
2014-Aug-10 21:33N 57°04' E 012°10'3 2.4
2014-Aug-10 20:30N 57°05' E 012°06'2 1.6
2014-Aug-10 19:10N 57°05' E 012°03'2 2.6
2014-Aug-10 18:32N 57°04' E 012°05'6 5.9
2014-Aug-10 17:28N 57°03' E 012°16'0 0.2
2014-Aug-10 16:31N 57°04' E 012°16'0 0.0
2014-Aug-10 15:25N 57°04' E 012°16'0 0.0
2014-Aug-10 14:25N 57°04' E 012°16'0 0.0
2014-Aug-10 13:31N 57°04' E 012°16'0 0.0
2014-Aug-10 12:07N 57°04' E 012°16'0 0.0
2014-Aug-10 11:13N 57°04' E 012°16'0 0.0
2014-Aug-10 10:31N 57°04' E 012°16'0 0.0
2014-Aug-10 09:31N 57°04' E 012°16'0 0.0
2014-Aug-10 08:19N 57°04' E 012°16'0 0.0
2014-Aug-10 07:31N 57°04' E 012°16'0 0.0
2014-Aug-10 06:13N 57°04' E 012°16'0 0.0
2014-Aug-10 05:31N 57°04' E 012°16'0 0.0
2014-Aug-10 04:13N 57°04' E 012°16'0 0.0
2014-Aug-10 03:31N 57°04' E 012°16'0 0.0
2014-Aug-10 02:25N 57°04' E 012°16'0 0.0
2014-Aug-10 01:25N 57°04' E 012°16'0 0.0
2014-Aug-10 00:07N 57°04' E 012°16'0 0.0
2014-Aug-09 23:25N 57°04' E 012°16'0 0.0
2014-Aug-09 22:25N 57°04' E 012°16'0 0.0
2014-Aug-09 21:13N 57°04' E 012°16'0 0.0
2014-Aug-09 20:19N 57°04' E 012°16'0 0.0
2014-Aug-09 19:25N 57°04' E 012°16'0 0.0
2014-Aug-09 18:25N 57°04' E 012°16'0 0.0
2014-Aug-09 17:31N 57°04' E 012°16'0 0.0
2014-Aug-09 16:19N 57°04' E 012°16'0 0.0
2014-Aug-09 15:31N 57°04' E 012°16'0 0.0
2014-Aug-09 14:31N 57°04' E 012°16'0 0.0
2014-Aug-09 13:19N 57°04' E 012°16'0 0.0
2014-Aug-09 10:19N 57°04' E 012°16'0 0.0
2014-Aug-09 09:31N 57°04' E 012°16'0 0.0
2014-Aug-09 08:07N 57°04' E 012°16'0 0.0
2014-Aug-09 07:31N 57°04' E 012°16'0 0.0
2014-Aug-09 06:19N 57°04' E 012°16'0 0.0
2014-Aug-09 05:19N 57°04' E 012°16'0 0.0
2014-Aug-09 04:31N 57°04' E 012°16'0 0.0
2014-Aug-09 03:31N 57°04' E 012°16'0 0.0
2014-Aug-09 02:19N 57°04' E 012°16'0 0.0
2014-Aug-09 01:25N 57°04' E 012°16'0 0.0
2014-Aug-09 00:31N 57°04' E 012°16'0 0.0
2014-Aug-08 23:31N 57°04' E 012°16'0 0.0
2014-Aug-08 22:31N 57°04' E 012°16'0 0.0
2014-Aug-08 21:13N 57°04' E 012°16'0 0.0
2014-Aug-08 20:31N 57°04' E 012°16'  
Track history (hours):
 
Tides and Currents Weather Stations Pressure Air Temp Water Temp Dewpoint Dewpoint Depression Visibility Wind Speed Wind Dir Waves Ship Positions

Vg 117 Kungsvik

Last reported at 2014-Aug-18 19:30 UTC. Time now 2014-Aug-21 21:58 UTC.
Position N 57°04' E 012°16'.

Length 17 m.

Type: Fishing. MMSI: 266137000.

Date/timePositionNaut miles runAvg speedWind from/ knotsBaromVisibWave heightAir tempDewpointWater temp
2014-Aug-18 19:30N 57°04' E 012°16'0 0.0
2014-Aug-18 18:06N 57°04' E 012°16'0 0.0
2014-Aug-18 17:18N 57°04' E 012°16'0 0.0
2014-Aug-18 13:28N 57°04' E 012°16'0 0.0
2014-Aug-18 12:10N 57°04' E 012°16'0 0.0
2014-Aug-18 11:28N 57°04' E 012°16'0 0.0
2014-Aug-18 07:22N 57°04' E 012°16'0 0.0
2014-Aug-18 06:28N 57°04' E 012°16'0 0.0
2014-Aug-17 17:10N 57°04' E 012°16'0 0.0
2014-Aug-17 16:28N 57°04' E 012°16'0 0.0
2014-Aug-17 15:28N 57°04' E 012°16'0 0.0
2014-Aug-17 13:16N 57°04' E 012°16'0 0.0
2014-Aug-17 10:28N 57°04' E 012°16'0 0.0
2014-Aug-17 09:29N 57°04' E 012°16'0 0.0
2014-Aug-17 08:28N 57°04' E 012°16'0 0.0
2014-Aug-17 07:29N 57°04' E 012°16'0 0.0
2014-Aug-17 06:11N 57°04' E 012°16'0 0.0
2014-Aug-17 05:29N 57°04' E 012°16'0 0.0
2014-Aug-17 04:29N 57°04' E 012°16'0 0.0
2014-Aug-17 03:29N 57°04' E 012°16'0 0.0
2014-Aug-17 02:23N 57°04' E 012°16'0 0.0
2014-Aug-17 01:29N 57°04' E 012°16'0 0.0
2014-Aug-17 00:29N 57°04' E 012°16'0 0.0
2014-Aug-16 23:29N 57°04' E 012°16'0 0.0
2014-Aug-16 22:29N 57°04' E 012°16'0 0.0
2014-Aug-16 21:29N 57°04' E 012°16'0 0.0
2014-Aug-16 20:17N 57°04' E 012°16'0 0.0
2014-Aug-16 19:29N 57°04' E 012°16'0 0.0
2014-Aug-16 18:29N 57°04' E 012°16'0 0.0
2014-Aug-16 17:23N 57°04' E 012°16'0 0.0
2014-Aug-16 16:29N 57°04' E 012°16'0 0.0
2014-Aug-16 15:23N 57°04' E 012°16'0 0.0
2014-Aug-16 14:05N 57°04' E 012°16'0 0.0
2014-Aug-16 13:17N 57°04' E 012°16'0 0.0
2014-Aug-16 12:29N 57°04' E 012°16'0 0.0
2014-Aug-16 09:29N 57°04' E 012°16'0 0.0
2014-Aug-16 08:29N 57°04' E 012°16'0 0.0
2014-Aug-16 07:29N 57°04' E 012°16'0 0.0
2014-Aug-16 06:26N 57°04' E 012°16'12 1.3
2014-Aug-15 20:31N 57°02' E 011°54'2 2.0
2014-Aug-15 19:31N 57°02' E 011°57'2 2.5
2014-Aug-15 18:33N 57°02' E 012°01'4 4.4
2014-Aug-15 17:33N 57°03' E 012°09'4 3.6
2014-Aug-15 16:30N 57°04' E 012°16'0 0.0
2014-Aug-15 15:30N 57°04' E 012°16'0 0.0
2014-Aug-15 14:30N 57°04' E 012°16'0 0.0
2014-Aug-15 13:30N 57°04' E 012°16'0 0.0
2014-Aug-15 12:30N 57°04' E 012°16'0 0.0
2014-Aug-15 11:24N 57°04' E 012°16'0 0.0
2014-Aug-15 10:30N 57°04' E 012°16'0 0.0
2014-Aug-15 09:24N 57°04' E 012°16'0 0.0
2014-Aug-15 08:30N 57°04' E 012°16'0 0.0
2014-Aug-15 07:24N 57°04' E 012°16'0 0.0
2014-Aug-15 06:24N 57°04' E 012°16'3 3.8
2014-Aug-15 05:33N 57°03' E 012°11'5 3.9
2014-Aug-15 04:15N 57°02' E 012°01'2 2.5
2014-Aug-15 03:33N 57°02' E 011°58'2 1.9
2014-Aug-15 02:32N 57°04' E 011°57'1 1.4
2014-Aug-15 01:31N 57°04' E 011°59'2 2.3
2014-Aug-15 00:33N 57°03' E 012°02'2 2.3
2014-Aug-14 23:33N 57°02' E 012°06'2 2.0
2014-Aug-14 22:33N 57°03' E 012°03'3 1.5
2014-Aug-14 20:12N 57°02' E 011°57'1 2.3
2014-Aug-14 19:33N 57°02' E 011°59'2 2.3
2014-Aug-14 18:33N 57°02' E 012°04'4 3.9
2014-Aug-14 17:34N 57°02' E 012°11'3 2.9
2014-Aug-14 16:25N 57°04' E 012°16'0 0.0
2014-Aug-14 15:25N 57°04' E 012°16'0 0.0
2014-Aug-14 11:07N 57°04' E 012°16'1 0.2
2014-Aug-14 07:17N 57°03' E 012°15'4 5.8
2014-Aug-14 06:31N 57°02' E 012°07'3 2.6
2014-Aug-14 05:28N 57°02' E 012°02'2 2.0
2014-Aug-14 04:32N 57°03' E 011°59'2 2.5
2014-Aug-14 03:33N 57°06' E 011°60'2 2.3
2014-Aug-14 02:33N 57°06' E 012°04'2 2.4
2014-Aug-14 01:33N 57°05' E 012°08'2 2.3
2014-Aug-14 00:31N 57°03' E 012°11'3 2.6
2014-Aug-13 23:33N 57°01' E 012°09'2 1.9
2014-Aug-13 22:32N 56°60' E 012°06'2 2.1
2014-Aug-13 21:33N 56°59' E 012°02'0 0.1
2014-Aug-13 20:33N 56°59' E 012°02'3 2.5
2014-Aug-13 19:32N 56°60' E 012°07'2 2.4
2014-Aug-13 18:33N 57°01' E 012°10'4 4.2
2014-Aug-13 17:33N 57°04' E 012°16'0 0.0
2014-Aug-13 16:33N 57°04' E 012°16'0 0.0
2014-Aug-13 15:27N 57°04' E 012°16'0 0.0
2014-Aug-13 14:33N 57°04' E 012°16'0 0.0
2014-Aug-13 13:33N 57°04' E 012°16'0 0.0
2014-Aug-13 12:33N 57°04' E 012°16'0 0.0
2014-Aug-13 11:27N 57°04' E 012°16'0 0.0
2014-Aug-13 10:33N 57°04' E 012°16'0 0.0
2014-Aug-13 09:33N 57°04' E 012°16'0 0.0
2014-Aug-13 08:33N 57°04' E 012°16'0 0.0
2014-Aug-13 07:33N 57°04' E 012°16'0 0.0
2014-Aug-13 06:33N 57°04' E 012°16'0 0.0
2014-Aug-13 05:33N 57°04' E 012°16'0 0.0
2014-Aug-13 04:33N 57°04' E 012°16'0 0.0
2014-Aug-13 03:33N 57°04' E 012°16'0 0.0
2014-Aug-12 19:33N 57°04' E 012°16'0 0.0
2014-Aug-12 18:33N 57°04' E 012°16'0 0.0
2014-Aug-12 17:33N 57°04' E 012°16'0 0.0
2014-Aug-12 16:33N 57°04' E 012°16'0 0.0
2014-Aug-12 15:33N 57°04' E 012°16'0 0.0
2014-Aug-12 14:33N 57°04' E 012°16'0 0.0
2014-Aug-12 13:27N 57°04' E 012°16'0 0.0
2014-Aug-12 12:33N 57°04' E 012°16'0 0.0
2014-Aug-12 11:33N 57°04' E 012°16'0 0.0
2014-Aug-12 10:27N 57°04' E 012°16'0 0.0
2014-Aug-12 09:27N 57°04' E 012°16'0 0.0
2014-Aug-12 08:21N 57°04' E 012°16'0 0.0
2014-Aug-12 07:27N 57°04' E 012°16'0 0.0
2014-Aug-12 06:33N 57°04' E 012°16'0 0.0
2014-Aug-12 05:27N 57°04' E 012°16'0 0.0
2014-Aug-12 04:33N 57°04' E 012°16'0 0.0
2014-Aug-12 03:33N 57°04' E 012°16'0 0.0
2014-Aug-12 02:21N 57°04' E 012°16'0 0.0
2014-Aug-12 01:33N 57°04' E 012°16'0 0.0
2014-Aug-12 00:21N 57°04' E 012°16'0 0.0
2014-Aug-11 23:33N 57°04' E 012°16'0 0.0
2014-Aug-11 22:27N 57°04' E 012°16'0 0.0
2014-Aug-11 21:33N 57°04' E 012°16'0 0.0
2014-Aug-11 20:33N 57°04' E 012°16'0 0.0
2014-Aug-11 19:27N 57°04' E 012°16'0 0.0
2014-Aug-11 18:33N 57°04' E 012°16'0 0.0
2014-Aug-11 17:33N 57°04' E 012°16'0 0.0
2014-Aug-11 16:33N 57°04' E 012°16'0 0.0
2014-Aug-11 15:33N 57°04' E 012°16'0 0.0
2014-Aug-11 14:33N 57°04' E 012°16'0 0.0
2014-Aug-11 13:21N 57°04' E 012°16'0 0.0
2014-Aug-11 12:27N 57°04' E 012°16'0 0.0
2014-Aug-11 11:27N 57°04' E 012°16'0 0.0
2014-Aug-11 10:33N 57°04' E 012°16'0 0.0
2014-Aug-11 09:09N 57°04' E 012°16'0 0.0
2014-Aug-11 08:15N 57°04' E 012°16'0 0.0
2014-Aug-11 07:33N 57°04' E 012°16'0 0.0
2014-Aug-11 06:21N 57°04' E 012°16'0 0.0
2014-Aug-11 05:33N 57°04' E 012°16'0 0.0
2014-Aug-11 04:33N 57°04' E 012°16'0 0.0
2014-Aug-11 03:21N 57°04' E 012°16'0 0.0
2014-Aug-11 02:33N 57°04' E 012°16'1 0.7
2014-Aug-11 01:32N 57°03' E 012°15'3 3.2
2014-Aug-11 00:33N 57°00' E 012°14'1 1.0
2014-Aug-10 23:33N 56°59' E 012°13'2 2.2
2014-Aug-10 22:31N 57°02' E 012°12'2 2.4
2014-Aug-10 21:33N 57°04' E 012°10'3 2.4
2014-Aug-10 20:30N 57°05' E 012°06'2 1.6
2014-Aug-10 19:10N 57°05' E 012°03'2 2.6
2014-Aug-10 18:32N 57°04' E 012°05'6 5.9
2014-Aug-10 17:28N 57°03' E 012°16'0 0.2
2014-Aug-10 16:31N 57°04' E 012°16'0 0.0
2014-Aug-10 15:25N 57°04' E 012°16'0 0.0
2014-Aug-10 14:25N 57°04' E 012°16'0 0.0
2014-Aug-10 13:31N 57°04' E 012°16'0 0.0
2014-Aug-10 12:07N 57°04' E 012°16'0 0.0
2014-Aug-10 11:13N 57°04' E 012°16'0 0.0
2014-Aug-10 10:31N 57°04' E 012°16'0 0.0
2014-Aug-10 09:31N 57°04' E 012°16'0 0.0
2014-Aug-10 08:19N 57°04' E 012°16'0 0.0
2014-Aug-10 07:31N 57°04' E 012°16'0 0.0
2014-Aug-10 06:13N 57°04' E 012°16'0 0.0
2014-Aug-10 05:31N 57°04' E 012°16'0 0.0
2014-Aug-10 04:13N 57°04' E 012°16'0 0.0
2014-Aug-10 03:31N 57°04' E 012°16'0 0.0
2014-Aug-10 02:25N 57°04' E 012°16'0 0.0
2014-Aug-10 01:25N 57°04' E 012°16'0 0.0
2014-Aug-10 00:07N 57°04' E 012°16'0 0.0
2014-Aug-09 23:25N 57°04' E 012°16'0 0.0
2014-Aug-09 22:25N 57°04' E 012°16'0 0.0
2014-Aug-09 21:13N 57°04' E 012°16'0 0.0
2014-Aug-09 20:19N 57°04' E 012°16'0 0.0
2014-Aug-09 19:25N 57°04' E 012°16'0 0.0
2014-Aug-09 18:25N 57°04' E 012°16'0 0.0
2014-Aug-09 17:31N 57°04' E 012°16'0 0.0
2014-Aug-09 16:19N 57°04' E 012°16'0 0.0
2014-Aug-09 15:31N 57°04' E 012°16'0 0.0
2014-Aug-09 14:31N 57°04' E 012°16'0 0.0
2014-Aug-09 13:19N 57°04' E 012°16'0 0.0
2014-Aug-09 10:19N 57°04' E 012°16'0 0.0
2014-Aug-09 09:31N 57°04' E 012°16'0 0.0
2014-Aug-09 08:07N 57°04' E 012°16'0 0.0
2014-Aug-09 07:31N 57°04' E 012°16'0 0.0
2014-Aug-09 06:19N 57°04' E 012°16'0 0.0
2014-Aug-09 05:19N 57°04' E 012°16'0 0.0
2014-Aug-09 04:31N 57°04' E 012°16'0 0.0
2014-Aug-09 03:31N 57°04' E 012°16'0 0.0
2014-Aug-09 02:19N 57°04' E 012°16'0 0.0
2014-Aug-09 01:25N 57°04' E 012°16'0 0.0
2014-Aug-09 00:31N 57°04' E 012°16'0 0.0
2014-Aug-08 23:31N 57°04' E 012°16'0 0.0
2014-Aug-08 22:31N 57°04' E 012°16'0 0.0
2014-Aug-08 21:13N 57°04' E 012°16'0 0.0
2014-Aug-08 20:31N 57°04' E 012°16'  

Dump ship's entire track history